Bookmark and Share
Track history (hours):
 

Algosoo

Last reported at 2014-Apr-15 22:33 UTC. Time now 2014-Apr-17 18:36 UTC.
Position N 46°30' W 072°14'.

Length 223 m; draft 8.1 m.

Type: Cargo ship. MMSI: 316001799.

NotesDate/timePositionNaut miles runAvg speedWind from/ knotsBaromVisibWave heightAir tempDewpointWater temp
2014-Apr-15 22:33N 46°30' W 072°14'1312.5
2014-Apr-15 21:33N 46°23' W 072°28'1111.4
2014-Apr-15 20:33N 46°16' W 072°41'1211.9
2014-Apr-15 19:32N 46°10' W 072°56'1711.6
2014-Apr-15 18:05N 45°57' W 073°13'712.4
2014-Apr-15 17:34N 45°51' W 073°16'1312.9
2014-Apr-15 16:34N 45°41' W 073°27'1110.7
2014-Apr-15 15:34N 45°31' W 073°31'2 2.0
2014-Apr-15 14:34N 45°29' W 073°31'5 2.3
2014-Apr-15 12:34N 45°24' W 073°33'2 1.6
2014-Apr-15 11:34N 45°24' W 073°35'5 4.8
2014-Apr-15 10:34N 45°25' W 073°42'9 8.8
2014-Apr-15 09:34N 45°21' W 073°53'1 1.1
2014-Apr-15 08:34N 45°20' W 073°54'0 0.0
2014-Apr-15 07:34N 45°20' W 073°54'0 0.3
2014-Apr-15 06:34N 45°20' W 073°55'1 0.9
2014-Apr-15 05:34N 45°19' W 073°55'3 1.5
2014-Apr-15 03:34N 45°16' W 073°57'7 6.5
2014-Apr-15 02:34N 45°13' W 074°05'8 8.3
2014-Apr-15 01:34N 45°13' W 074°17'8 7.5
2014-Apr-15 00:30N 45°08' W 074°26'  
2014-Apr-12 13:34N 43°59' W 076°33'9 8.6
2014-Apr-12 12:33N 44°06' W 076°24'6 5.7
2014-Apr-12 11:33N 44°10' W 076°19'3 3.0
2014-Apr-12 10:26N 44°12' W 076°15'1 0.6
2014-Apr-12 09:34N 44°12' W 076°14'0 0.0
2014-Apr-12 08:09N 44°12' W 076°14'0 0.0
2014-Apr-12 05:05N 44°12' W 076°14'0 0.0
2014-Apr-12 00:10N 44°12' W 076°14'1 0.1
2014-Apr-11 17:05N 44°12' W 076°14'3 6.3
2014-Apr-11 16:32N 44°14' W 076°09'91 3.6
2014-Apr-10 15:23N 45°07' W 074°27'7 8.0
2014-Apr-10 14:33N 45°11' W 074°19'8 7.6
2014-Apr-10 13:33N 45°14' W 074°09'7 6.8
2014-Apr-10 12:33N 45°14' W 073°60'4 3.7
2014-Apr-10 11:22N 45°18' W 073°56'0 0.5
2014-Apr-10 10:31N 45°18' W 073°56'1 0.8
2014-Apr-10 09:31N 45°19' W 073°55'0 0.3
2014-Apr-10 08:31N 45°19' W 073°55'0 0.0
2014-Apr-10 07:31N 45°19' W 073°55'0 0.0
2014-Apr-10 06:31N 45°19' W 073°55'0 0.0
2014-Apr-10 05:31N 45°19' W 073°55'0 0.0
2014-Apr-10 04:31N 45°19' W 073°55'0 0.0
2014-Apr-10 03:31N 45°19' W 073°55'0 0.0
2014-Apr-10 02:31N 45°19' W 073°55'0 0.0
2014-Apr-10 01:28N 45°19' W 073°55'0 0.0
2014-Apr-10 00:31N 45°19' W 073°55'0 0.0
2014-Apr-09 23:31N 45°19' W 073°55'0 0.0
2014-Apr-09 22:31N 45°19' W 073°55'0 0.0
2014-Apr-09 21:28N 45°19' W 073°55'0 0.0
2014-Apr-09 20:31N 45°19' W 073°55'0 0.0
2014-Apr-09 17:31N 45°19' W 073°55'3 2.7
2014-Apr-09 16:33N 45°21' W 073°52'7 6.9
2014-Apr-09 15:34N 45°24' W 073°44'4 4.3
2014-Apr-09 14:33N 45°24' W 073°37'2 2.5
2014-Apr-09 13:33N 45°24' W 073°34'2 1.8
2014-Apr-09 12:33N 45°25' W 073°31'5 4.8
2014-Apr-09 11:31N 45°30' W 073°31'1 0.8
2014-Apr-09 10:31N 45°30' W 073°31'5 5.4
2014-Apr-09 09:33N 45°36' W 073°30'6 6.5
2014-Apr-09 08:33N 45°42' W 073°27'41 6.8
2014-Apr-09 02:33N 46°13' W 072°49'8 7.7
2014-Apr-09 01:33N 46°16' W 072°39'6 6.3
2014-Apr-09 00:33N 46°20' W 072°32'7 6.6
2014-Apr-08 23:33N 46°24' W 072°24'7 6.9
2014-Apr-08 22:33N 46°27' W 072°15'7 7.1
2014-Apr-08 21:33N 46°33' W 072°09'  

Dump ship's entire track history

sailing weather and tide predictions

Algosoo — VGJD — position and weather